Time;durP1;ratioP1;P1;durP2;ratioP2;P2;SDS_P1;SDS_P2;PMS_P1;PMS_P2;Temp;Humidity;BMP_temperature;BMP_pressure;BME280_temperature;BME280_humidity;BME280_pressure;Samples;Min_cycle;Max_cycle;Signal;HPM_P1;HPM_P2
2021/08/03 00:00:22;;;;;;;0.60;0.60;;;20.90;63.60;;;;;;5113658;28;20169;-72
2021/08/03 00:02:47;;;;;;;2.25;1.05;;;20.80;63.50;;;;;;5114519;28;20196;-73
2021/08/03 00:05:19;;;;;;;0.75;0.75;;;20.80;63.50;;;;;;5096093;28;20658;-73
2021/08/03 00:07:46;;;;;;;0.60;0.60;;;20.80;63.50;;;;;;5113929;28;20177;-73
2021/08/03 00:10:12;;;;;;;0.75;0.75;;;20.90;63.60;;;;;;5096364;28;20627;-73
2021/08/03 00:12:37;;;;;;;0.80;0.80;;;20.80;63.50;;;;;;5079047;28;20180;-72
2021/08/03 00:15:03;;;;;;;0.93;0.85;;;20.80;63.60;;;;;;5095424;28;20259;-72
2021/08/03 00:17:28;;;;;;;0.68;0.68;;;20.80;63.50;;;;;;5113977;28;20630;-72
2021/08/03 00:19:54;;;;;;;1.00;1.00;;;20.80;63.50;;;;;;5095666;28;20353;-72
2021/08/03 00:22:23;;;;;;;0.88;0.88;;;20.80;63.60;;;;;;5113405;28;20241;-72
2021/08/03 00:24:49;;;;;;;0.70;0.70;;;20.80;63.60;;;;;;5114400;28;20173;-72
2021/08/03 00:27:14;;;;;;;0.73;0.73;;;20.80;63.60;;;;;;5114116;28;20185;-74
2021/08/03 00:29:40;;;;;;;0.88;0.80;;;20.80;63.50;;;;;;5113260;28;20215;-72
2021/08/03 00:32:06;;;;;;;0.70;0.70;;;20.80;63.50;;;;;;5114052;28;20616;-73
2021/08/03 00:34:31;;;;;;;0.77;0.77;;;20.80;63.60;;;;;;5113816;28;20199;-72
2021/08/03 00:36:57;;;;;;;0.63;0.63;;;20.80;63.60;;;;;;5113251;28;20173;-72
2021/08/03 00:39:23;;;;;;;0.70;0.70;;;20.80;63.60;;;;;;5078927;28;20195;-72
2021/08/03 00:41:55;;;;;;;0.80;0.70;;;20.80;63.50;;;;;;5113782;28;20269;-73
2021/08/03 00:44:38;;;;;;;1.60;0.70;;;20.80;63.60;;;;;;5095582;28;20173;-74
2021/08/03 00:47:04;;;;;;;0.90;0.90;;;20.80;63.60;;;;;;5113884;28;20181;-72
2021/08/03 00:49:29;;;;;;;0.70;0.70;;;20.70;63.50;;;;;;5112883;28;20176;-73
2021/08/03 00:51:55;;;;;;;0.60;0.60;;;20.80;63.60;;;;;;5114039;28;20165;-73
2021/08/03 00:54:20;;;;;;;0.93;0.77;;;20.80;63.60;;;;;;5113496;28;20177;-73
2021/08/03 00:56:46;;;;;;;0.80;0.70;;;20.80;63.60;;;;;;5094651;28;20529;-72
2021/08/03 00:59:12;;;;;;;0.80;0.80;;;20.80;63.60;;;;;;5113589;28;20218;-72
2021/08/03 01:01:37;;;;;;;1.40;0.70;;;20.70;63.50;;;;;;5113030;28;20293;-73
2021/08/03 01:04:03;;;;;;;0.73;0.70;;;20.70;63.50;;;;;;5112760;28;20506;-74
2021/08/03 01:06:36;;;;;;;1.00;0.63;;;20.70;63.50;;;;;;5113207;28;20618;-72
2021/08/03 01:09:07;;;;;;;1.40;0.75;;;20.70;63.50;;;;;;5095165;28;20366;-72
2021/08/03 01:12:02;;;;;;;0.70;0.70;;;20.70;63.50;;;;;;5077725;28;20181;-72
2021/08/03 01:14:41;;;;;;;1.02;0.90;;;20.70;63.50;;;;;;5092352;28;20332;-73
2021/08/03 01:17:30;;;;;;;1.40;1.00;;;20.70;63.50;;;;;;5077825;28;20180;-72
2021/08/03 01:20:08;;;;;;;1.00;0.90;;;20.70;63.50;;;;;;5113082;28;20364;-72
2021/08/03 01:23:10;;;;;;;0.80;0.80;;;20.70;63.50;;;;;;5095099;28;20313;-72
2021/08/03 01:26:13;;;;;;;1.10;1.00;;;20.70;63.50;;;;;;5093939;28;20172;-73
2021/08/03 01:28:42;;;;;;;0.80;0.80;;;20.70;63.60;;;;;;5112768;28;20175;-72
2021/08/03 01:31:20;;;;;;;1.67;1.00;;;20.70;63.60;;;;;;5077699;28;20177;-73
2021/08/03 01:33:57;;;;;;;0.98;0.80;;;20.70;63.60;;;;;;5078710;28;20465;-73
2021/08/03 01:36:22;;;;;;;0.60;0.60;;;20.70;63.50;;;;;;5078978;28;20173;-73
2021/08/03 01:38:48;;;;;;;1.13;0.70;;;20.70;63.60;;;;;;5093803;28;20169;-72
2021/08/03 01:41:15;;;;;;;0.70;0.70;;;20.70;63.60;;;;;;5094243;28;20598;-72
2021/08/03 01:43:41;;;;;;;0.80;0.80;;;20.70;63.50;;;;;;5077885;28;20185;-72
2021/08/03 01:46:06;;;;;;;0.70;0.70;;;20.60;63.50;;;;;;5111803;28;20177;-72
2021/08/03 01:48:32;;;;;;;0.95;0.85;;;20.60;63.50;;;;;;5077149;28;20267;-72
2021/08/03 01:50:58;;;;;;;1.55;0.80;;;20.60;63.50;;;;;;5094444;28;20177;-72
2021/08/03 01:53:24;;;;;;;1.00;0.80;;;20.70;63.60;;;;;;5076596;28;20204;-72
2021/08/03 01:55:50;;;;;;;0.52;0.52;;;20.60;63.50;;;;;;5094084;28;20181;-73
2021/08/03 01:58:15;;;;;;;0.95;0.88;;;20.60;63.50;;;;;;5077451;28;20170;-73
2021/08/03 02:00:42;;;;;;;0.75;0.75;;;20.60;64.00;;;;;;5076592;28;20180;-73
2021/08/03 02:03:07;;;;;;;1.02;0.70;;;20.60;63.50;;;;;;5094170;28;20173;-74
2021/08/03 02:05:33;;;;;;;0.70;0.70;;;20.60;63.50;;;;;;5076848;28;20599;-73
2021/08/03 02:07:58;;;;;;;0.50;0.50;;;20.60;63.60;;;;;;5076261;28;20174;-73
2021/08/03 02:10:24;;;;;;;0.93;0.80;;;20.60;63.60;;;;;;5076709;28;20229;-74
2021/08/03 02:12:49;;;;;;;0.50;0.50;;;20.60;63.50;;;;;;5077460;28;20268;-72
2021/08/03 02:15:15;;;;;;;0.82;0.60;;;20.60;63.50;;;;;;5076239;28;20180;-73
2021/08/03 02:17:40;;;;;;;1.35;0.70;;;20.60;63.60;;;;;;5111853;28;20271;-73
2021/08/03 02:20:06;;;;;;;0.80;0.65;;;20.60;63.60;;;;;;5111251;28;20217;-73
2021/08/03 02:22:32;;;;;;;0.70;0.70;;;20.60;63.50;;;;;;5110850;28;20666;-73
2021/08/03 02:24:57;;;;;;;0.70;0.70;;;20.60;63.60;;;;;;5112023;28;20165;-72
2021/08/03 02:27:23;;;;;;;0.60;0.60;;;20.60;63.60;;;;;;5110985;28;20637;-73
2021/08/03 02:29:48;;;;;;;0.73;0.60;;;20.60;63.70;;;;;;5111980;28;20173;-73
2021/08/03 02:32:27;;;;;;;1.02;0.70;;;20.60;63.60;;;;;;5077037;28;20173;-73
2021/08/03 02:35:27;;;;;;;2.17;0.95;;;20.60;63.70;;;;;;5093795;28;20173;-73
2021/08/03 02:37:56;;;;;;;0.80;0.80;;;20.60;63.60;;;;;;5089846;28;20647;-73
2021/08/03 02:40:22;;;;;;;0.60;0.60;;;20.60;63.70;;;;;;5076803;28;20187;-73
2021/08/03 02:42:47;;;;;;;1.15;0.70;;;20.60;63.70;;;;;;5110997;28;20213;-73
2021/08/03 02:45:16;;;;;;;0.75;0.75;;;20.60;63.70;;;;;;5076587;28;20684;-73
2021/08/03 02:47:51;;;;;;;1.15;0.50;;;20.60;63.70;;;;;;5077629;28;20584;-73
2021/08/03 02:50:16;;;;;;;1.02;0.80;;;20.60;63.90;;;;;;5078547;28;20176;-73
2021/08/03 02:52:43;;;;;;;0.70;0.70;;;20.50;63.70;;;;;;5093542;28;20176;-73
2021/08/03 02:56:01;;;;;;;0.73;0.73;;;20.60;63.70;;;;;;5093615;28;20181;-73
2021/08/03 02:58:32;;;;;;;0.85;0.85;;;20.60;63.70;;;;;;5044514;28;20259;-74
2021/08/03 03:00:58;;;;;;;0.95;0.70;;;20.50;63.70;;;;;;5076880;28;20200;-73
2021/08/03 03:03:24;;;;;;;0.93;0.90;;;20.50;63.70;;;;;;5092290;28;20173;-73
2021/08/03 03:05:58;;;;;;;0.70;0.70;;;20.50;63.80;;;;;;5076766;28;20242;-72
2021/08/03 03:08:26;;;;;;;0.95;0.80;;;20.50;63.80;;;;;;5076468;28;20306;-73
2021/08/03 03:10:53;;;;;;;0.93;0.85;;;20.50;63.70;;;;;;5075813;28;20206;-72
2021/08/03 03:13:29;;;;;;;0.65;0.65;;;20.50;63.70;;;;;;5111672;28;20185;-72
2021/08/03 03:15:55;;;;;;;0.68;0.68;;;20.50;63.70;;;;;;5111520;28;20176;-72
2021/08/03 03:18:21;;;;;;;0.85;0.85;;;20.50;63.80;;;;;;5092061;28;20281;-71
2021/08/03 03:20:46;;;;;;;1.20;0.80;;;20.50;63.70;;;;;;5093080;28;20181;-72
2021/08/03 03:23:13;;;;;;;0.95;0.80;;;20.50;63.70;;;;;;5076213;28;20209;-72
2021/08/03 03:25:38;;;;;;;1.67;0.80;;;20.50;63.90;;;;;;5092302;28;20187;-72
2021/08/03 03:28:05;;;;;;;0.73;0.73;;;20.50;63.80;;;;;;5111179;28;20177;-73
2021/08/03 03:30:31;;;;;;;0.50;0.50;;;20.50;63.70;;;;;;5094101;28;20453;-72
2021/08/03 03:33:02;;;;;;;0.60;0.60;;;20.50;63.80;;;;;;5096159;28;20162;-73
2021/08/03 03:35:28;;;;;;;0.70;0.70;;;20.50;63.80;;;;;;5114977;28;20259;-72
2021/08/03 03:37:53;;;;;;;1.63;0.60;;;20.50;63.80;;;;;;5079102;28;20619;-73
2021/08/03 03:40:20;;;;;;;0.98;0.55;;;20.50;64.00;;;;;;5096386;28;20540;-73
2021/08/03 03:42:46;;;;;;;1.75;0.95;;;20.50;63.90;;;;;;5115062;28;20217;-72
2021/08/03 03:45:12;;;;;;;0.68;0.65;;;20.50;63.90;;;;;;5114457;28;20507;-72
2021/08/03 03:47:38;;;;;;;0.70;0.70;;;20.50;63.80;;;;;;5096394;28;20508;-72
2021/08/03 03:50:17;;;;;;;0.90;0.80;;;20.50;63.90;;;;;;5096610;28;20260;-73
2021/08/03 03:52:45;;;;;;;1.20;0.65;;;20.40;63.80;;;;;;5096210;28;20234;-73
2021/08/03 03:55:13;;;;;;;0.77;0.70;;;20.50;63.90;;;;;;5079949;28;20188;-72
2021/08/03 03:57:41;;;;;;;0.57;0.57;;;20.40;63.80;;;;;;5079514;28;20181;-72
2021/08/03 04:00:07;;;;;;;1.60;0.88;;;20.50;64.00;;;;;;5095810;28;20177;-73
2021/08/03 04:02:33;;;;;;;1.02;0.93;;;20.40;63.90;;;;;;5114182;28;20204;-72
2021/08/03 04:04:59;;;;;;;0.85;0.75;;;20.40;63.80;;;;;;5079340;28;20179;-73
2021/08/03 04:07:26;;;;;;;1.02;0.80;;;20.50;63.90;;;;;;5079108;28;20185;-71
2021/08/03 04:10:04;;;;;;;0.68;0.68;;;20.40;63.80;;;;;;5096557;28;20615;-73
2021/08/03 04:12:30;;;;;;;0.80;0.80;;;20.40;64.00;;;;;;5114398;28;20207;-72
2021/08/03 04:14:55;;;;;;;0.60;0.60;;;20.40;63.80;;;;;;5095764;28;20170;-71
2021/08/03 04:17:21;;;;;;;1.05;0.82;;;20.40;63.80;;;;;;5114123;28;20683;-72
2021/08/03 04:19:46;;;;;;;0.80;0.80;;;20.50;64.00;;;;;;5114362;28;20221;-72
2021/08/03 04:22:12;;;;;;;0.70;0.70;;;20.50;63.90;;;;;;5113972;28;20209;-72
2021/08/03 04:24:37;;;;;;;0.70;0.70;;;20.40;63.90;;;;;;5114184;28;20483;-71
2021/08/03 04:27:03;;;;;;;0.70;0.70;;;20.40;63.90;;;;;;5113733;28;20540;-72
2021/08/03 04:29:29;;;;;;;0.60;0.60;;;20.40;63.90;;;;;;5113946;28;20484;-71
2021/08/03 04:31:54;;;;;;;1.25;0.70;;;20.40;64.00;;;;;;5113829;28;20173;-71
2021/08/03 04:34:19;;;;;;;0.93;0.80;;;20.40;64.00;;;;;;5112898;28;20250;-71
2021/08/03 04:36:45;;;;;;;0.60;0.60;;;20.40;63.90;;;;;;5113778;28;20646;-72
2021/08/03 04:39:11;;;;;;;1.83;0.80;;;20.40;63.90;;;;;;5113956;28;20169;-71
2021/08/03 04:41:37;;;;;;;0.82;0.63;;;20.40;63.80;;;;;;5112111;28;20204;-73
2021/08/03 04:44:06;;;;;;;1.30;0.90;;;20.40;64.00;;;;;;5113711;28;20177;-74
2021/08/03 04:46:32;;;;;;;0.60;0.60;;;20.40;63.90;;;;;;5113259;28;20194;-72
2021/08/03 04:48:57;;;;;;;0.85;0.85;;;20.40;63.90;;;;;;5113157;28;20173;-73
2021/08/03 04:51:23;;;;;;;0.68;0.60;;;20.40;63.80;;;;;;5113179;28;20184;-72
2021/08/03 04:53:48;;;;;;;1.05;0.70;;;20.40;63.90;;;;;;5113390;28;20207;-73
2021/08/03 04:56:14;;;;;;;0.77;0.70;;;20.40;63.90;;;;;;5112903;28;20264;-73
2021/08/03 04:58:39;;;;;;;0.88;0.80;;;20.40;63.90;;;;;;5113181;28;20173;-73
2021/08/03 05:01:05;;;;;;;1.08;0.85;;;20.40;63.90;;;;;;5113327;28;20201;-73
2021/08/03 05:03:30;;;;;;;0.63;0.63;;;20.40;63.90;;;;;;5112551;28;20241;-73
2021/08/03 05:05:56;;;;;;;0.75;0.57;;;20.50;63.90;;;;;;5113292;28;20581;-74
2021/08/03 05:08:21;;;;;;;0.70;0.70;;;20.40;63.80;;;;;;5112858;28;20268;-74
2021/08/03 05:10:47;;;;;;;1.02;0.70;;;20.40;63.80;;;;;;5112747;28;20191;-72
2021/08/03 05:13:12;;;;;;;0.60;0.60;;;20.40;63.90;;;;;;5113242;28;20265;-73
2021/08/03 05:15:38;;;;;;;0.95;0.80;;;20.40;63.80;;;;;;5094562;28;20239;-73
2021/08/03 05:18:03;;;;;;;1.05;0.95;;;20.40;63.90;;;;;;5112413;28;20274;-73
2021/08/03 05:20:29;;;;;;;0.70;0.70;;;20.50;63.80;;;;;;5112998;28;20352;-72
2021/08/03 05:22:54;;;;;;;0.95;0.70;;;20.40;63.80;;;;;;5112967;28;20303;-72
2021/08/03 05:25:20;;;;;;;1.05;0.80;;;20.50;63.80;;;;;;5112042;28;20169;-72
2021/08/03 05:27:45;;;;;;;0.80;0.80;;;20.50;63.80;;;;;;5113086;28;20180;-73
2021/08/03 05:30:11;;;;;;;1.00;0.80;;;20.50;63.80;;;;;;5112109;28;20166;-73
2021/08/03 05:32:37;;;;;;;1.23;0.82;;;20.50;63.70;;;;;;5112863;28;20169;-73
2021/08/03 05:35:06;;;;;;;1.15;0.77;;;20.50;63.70;;;;;;5112802;28;20169;-73
2021/08/03 05:37:31;;;;;;;1.52;0.77;;;20.50;63.70;;;;;;5111688;28;20468;-72
2021/08/03 05:39:58;;;;;;;0.60;0.60;;;20.50;63.70;;;;;;5112659;28;20715;-73
2021/08/03 05:42:24;;;;;;;0.70;0.70;;;20.50;63.70;;;;;;5112353;28;20264;-72
2021/08/03 05:44:49;;;;;;;0.65;0.65;;;20.50;63.70;;;;;;5111803;28;20257;-72
2021/08/03 05:47:15;;;;;;;0.70;0.70;;;20.50;63.60;;;;;;5112499;28;20179;-73
2021/08/03 05:49:41;;;;;;;1.52;0.63;;;20.50;63.70;;;;;;5112647;28;20196;-73
2021/08/03 05:52:06;;;;;;;0.63;0.63;;;20.50;63.70;;;;;;5111943;28;20234;-72
2021/08/03 05:54:32;;;;;;;1.00;0.82;;;20.50;63.70;;;;;;5112194;28;20577;-73
2021/08/03 05:56:57;;;;;;;1.33;0.70;;;20.50;63.70;;;;;;5112255;28;20688;-72
2021/08/03 05:59:23;;;;;;;1.23;0.85;;;20.50;63.70;;;;;;5111361;28;20177;-73
2021/08/03 06:01:48;;;;;;;0.55;0.55;;;20.50;63.80;;;;;;5112235;28;20216;-73
2021/08/03 06:04:14;;;;;;;0.70;0.70;;;20.50;63.70;;;;;;5112565;28;20169;-75
2021/08/03 06:06:41;;;;;;;0.93;0.70;;;20.50;63.70;;;;;;5111140;28;20551;-75
2021/08/03 06:09:11;;;;;;;0.70;0.70;;;20.50;63.70;;;;;;5112132;28;20601;-73
2021/08/03 06:11:46;;;;;;;0.70;0.70;;;20.50;63.70;;;;;;5111839;28;20254;-73
2021/08/03 06:14:12;;;;;;;0.70;0.70;;;20.60;63.70;;;;;;5111283;28;20169;-74
2021/08/03 06:16:38;;;;;;;0.68;0.68;;;20.50;63.70;;;;;;5093723;28;20199;-72
2021/08/03 06:19:04;;;;;;;1.33;0.73;;;20.50;63.70;;;;;;5111992;28;20265;-73
2021/08/03 06:21:30;;;;;;;1.05;0.95;;;20.50;63.70;;;;;;5110951;28;20273;-74
2021/08/03 06:23:56;;;;;;;1.48;0.80;;;20.50;63.70;;;;;;5111965;28;20201;-72
2021/08/03 06:26:22;;;;;;;1.05;0.75;;;20.50;63.70;;;;;;5111568;28;20238;-74
2021/08/03 06:28:52;;;;;;;0.82;0.60;;;20.50;63.70;;;;;;5111207;28;20620;-72
2021/08/03 06:31:18;;;;;;;0.95;0.95;;;20.50;63.80;;;;;;5111767;28;20178;-73
2021/08/03 06:33:46;;;;;;;0.80;0.60;;;20.50;63.80;;;;;;5111284;28;20169;-73
2021/08/03 06:36:12;;;;;;;0.70;0.70;;;20.50;63.80;;;;;;5093937;28;20177;-74
2021/08/03 06:38:37;;;;;;;0.60;0.60;;;20.50;63.90;;;;;;5111637;28;20218;-73
2021/08/03 06:41:22;;;;;;;0.98;0.80;;;20.50;63.80;;;;;;5110859;28;20303;-73
2021/08/03 06:43:54;;;;;;;0.90;0.90;;;20.60;63.90;;;;;;5111837;28;20177;-72
2021/08/03 06:46:19;;;;;;;0.88;0.80;;;20.50;63.80;;;;;;5111443;28;20256;-73
2021/08/03 06:48:56;;;;;;;1.13;0.80;;;20.50;63.80;;;;;;5092583;28;20267;-73
2021/08/03 06:51:22;;;;;;;0.82;0.60;;;20.50;63.80;;;;;;5111498;28;20230;-72
2021/08/03 06:53:48;;;;;;;0.90;0.90;;;20.50;63.80;;;;;;5111550;28;20483;-73
2021/08/03 06:56:20;;;;;;;0.65;0.55;;;20.50;63.80;;;;;;5092579;28;20197;-73
2021/08/03 06:59:06;;;;;;;0.82;0.82;;;20.50;63.90;;;;;;5111744;28;20177;-72
2021/08/03 07:01:50;;;;;;;0.70;0.70;;;20.50;64.70;;;;;;5077867;28;20212;-73
2021/08/03 07:04:20;;;;;;;0.82;0.82;;;20.50;63.90;;;;;;5093214;28;20173;-74
2021/08/03 07:06:48;;;;;;;0.98;0.98;;;20.50;63.90;;;;;;5097112;28;20201;-73
2021/08/03 07:09:14;;;;;;;0.77;0.68;;;20.50;63.90;;;;;;5114940;28;20218;-74
2021/08/03 07:11:43;;;;;;;1.55;0.85;;;20.50;63.90;;;;;;5115678;28;20256;-73
2021/08/03 07:14:09;;;;;;;0.50;0.50;;;20.50;63.90;;;;;;5115914;28;20177;-74
2021/08/03 07:16:34;;;;;;;0.70;0.70;;;20.50;63.90;;;;;;5114633;28;20226;-72
2021/08/03 07:19:00;;;;;;;1.00;1.00;;;20.50;63.90;;;;;;5097290;28;20244;-71
2021/08/03 07:21:26;;;;;;;0.77;0.77;;;20.50;63.80;;;;;;5115303;28;20217;-73
2021/08/03 07:23:56;;;;;;;1.35;0.65;;;20.50;63.90;;;;;;5115075;28;20178;-73
2021/08/03 07:26:22;;;;;;;0.88;0.80;;;20.50;63.90;;;;;;5115271;28;20181;-72
2021/08/03 07:28:47;;;;;;;0.82;0.80;;;20.50;63.90;;;;;;5115301;28;20221;-67
2021/08/03 07:31:13;;;;;;;1.75;0.80;;;20.50;64.00;;;;;;5114604;28;20169;-68
2021/08/03 07:33:39;;;;;;;1.88;1.08;;;20.50;64.00;;;;;;5080049;28;20547;-65
2021/08/03 07:36:05;;;;;;;0.88;0.88;;;20.50;64.00;;;;;;5097089;28;20180;-65
2021/08/03 07:38:30;;;;;;;2.60;1.13;;;20.50;64.00;;;;;;5114009;28;20180;-64
2021/08/03 07:40:56;;;;;;;3.38;0.98;;;20.50;63.90;;;;;;5115209;28;20174;-65
2021/08/03 07:43:21;;;;;;;1.95;1.02;;;20.50;63.90;;;;;;5114797;28;20515;-65
2021/08/03 07:45:47;;;;;;;7.47;1.67;;;20.50;63.90;;;;;;5114314;28;20173;-65
2021/08/03 07:48:14;;;;;;;1.98;1.27;;;20.50;63.90;;;;;;5114902;28;20600;-66
2021/08/03 07:50:39;;;;;;;3.22;1.33;;;20.50;63.80;;;;;;5114646;28;20627;-65
2021/08/03 07:53:05;;;;;;;2.85;1.10;;;20.50;63.70;;;;;;5114151;28;20317;-68
2021/08/03 07:55:30;;;;;;;3.45;0.88;;;20.60;63.90;;;;;;5103117;27;20165;-72
2021/08/03 07:57:56;;;;;;;1.45;1.05;;;20.60;63.90;;;;;;5123832;27;20177;-70
2021/08/03 08:00:21;;;;;;;2.15;1.17;;;20.60;63.60;;;;;;5122471;27;20166;-71
2021/08/03 08:02:47;;;;;;;2.28;1.30;;;20.60;63.60;;;;;;5129146;27;20253;-71
2021/08/03 08:05:12;;;;;;;1.63;1.05;;;20.70;63.60;;;;;;5116082;27;20275;-70
2021/08/03 08:07:38;;;;;;;1.20;1.05;;;20.70;63.50;;;;;;5134791;27;20168;-70
2021/08/03 08:10:04;;;;;;;0.85;0.85;;;20.70;63.50;;;;;;5135016;27;20168;-70
2021/08/03 08:12:29;;;;;;;2.28;1.13;;;20.70;63.60;;;;;;5133946;27;20337;-69
2021/08/03 08:14:55;;;;;;;1.83;0.85;;;20.80;63.60;;;;;;5134849;27;20179;-69
2021/08/03 08:17:20;;;;;;;2.20;1.10;;;20.80;63.60;;;;;;5133490;27;20275;-70
2021/08/03 08:19:46;;;;;;;2.17;0.90;;;20.80;63.60;;;;;;5133748;27;20227;-68
2021/08/03 08:22:11;;;;;;;2.30;1.13;;;20.80;63.60;;;;;;5134691;27;20208;-71
2021/08/03 08:24:37;;;;;;;2.33;1.10;;;20.80;63.50;;;;;;5134482;27;20585;-71
2021/08/03 08:27:02;;;;;;;3.53;1.23;;;20.80;63.20;;;;;;5133928;27;20176;-70
2021/08/03 08:29:28;;;;;;;3.13;1.10;;;20.80;63.20;;;;;;5134254;27;20654;-72
2021/08/03 08:31:53;;;;;;;5.28;1.65;;;20.80;63.20;;;;;;5119032;27;20488;-72
2021/08/03 08:34:19;;;;;;;2.10;1.20;;;20.80;63.20;;;;;;5131055;27;20189;-71
2021/08/03 08:36:44;;;;;;;4.07;1.40;;;20.80;63.20;;;;;;5113794;28;20256;-72
2021/08/03 08:39:10;;;;;;;2.30;1.00;;;20.90;63.20;;;;;;5120609;27;20181;-70
2021/08/03 08:41:36;;;;;;;1.45;1.00;;;20.90;63.20;;;;;;5133276;27;20220;-72
2021/08/03 08:44:04;;;;;;;1.55;1.10;;;20.90;63.20;;;;;;5133257;27;20538;-72
2021/08/03 08:46:34;;;;;;;1.35;1.13;;;20.90;63.10;;;;;;5133728;27;20168;-70
2021/08/03 08:49:00;;;;;;;2.15;1.20;;;20.90;63.10;;;;;;5115987;27;20226;-71
2021/08/03 08:51:26;;;;;;;1.52;0.90;;;20.90;63.00;;;;;;5095443;28;20176;-72
2021/08/03 08:53:51;;;;;;;2.20;1.33;;;20.90;62.90;;;;;;5095174;28;20504;-71
2021/08/03 08:56:17;;;;;;;2.75;1.50;;;20.90;63.00;;;;;;5112513;28;20169;-72
2021/08/03 08:58:43;;;;;;;2.65;1.30;;;20.90;63.10;;;;;;5113443;28;20534;-71
2021/08/03 09:01:09;;;;;;;2.08;1.30;;;20.90;63.10;;;;;;5113126;28;20220;-71
2021/08/03 09:03:34;;;;;;;1.75;1.02;;;20.90;63.10;;;;;;5113140;28;20241;-71
2021/08/03 09:06:01;;;;;;;1.77;1.40;;;20.90;63.20;;;;;;5130683;27;20176;-72
2021/08/03 09:08:36;;;;;;;1.35;1.25;;;20.90;63.20;;;;;;5132864;27;20620;-72
2021/08/03 09:11:13;;;;;;;1.65;1.40;;;20.90;63.30;;;;;;5134068;27;20180;-72
2021/08/03 09:14:00;;;;;;;2.75;1.40;;;20.90;63.30;;;;;;5133854;27;20173;-71
2021/08/03 09:16:27;;;;;;;3.50;1.85;;;20.90;63.30;;;;;;5132853;27;20187;-71
2021/08/03 09:18:54;;;;;;;1.40;1.30;;;20.90;63.30;;;;;;5133412;27;20220;-69
2021/08/03 09:21:24;;;;;;;1.73;1.02;;;21.00;63.30;;;;;;5133272;27;20196;-70
2021/08/03 09:23:53;;;;;;;2.47;1.60;;;21.00;63.10;;;;;;5132499;27;20305;-70
2021/08/03 09:26:21;;;;;;;1.88;1.50;;;21.00;63.00;;;;;;5133239;27;20181;-72
2021/08/03 09:29:09;;;;;;;3.58;1.60;;;21.10;63.00;;;;;;5133331;27;20187;-70
2021/08/03 09:31:35;;;;;;;2.92;1.65;;;21.10;62.90;;;;;;5132460;27;20246;-72
2021/08/03 09:34:09;;;;;;;2.40;1.67;;;21.10;62.80;;;;;;5133325;27;20172;-74
2021/08/03 09:36:44;;;;;;;1.63;1.38;;;21.20;62.80;;;;;;5115007;27;20251;-71
2021/08/03 09:39:36;;;;;;;1.38;1.27;;;21.20;62.70;;;;;;5124377;27;20191;-71
2021/08/03 09:42:06;;;;;;;4.47;1.98;;;21.20;62.60;;;;;;5097066;28;20201;-71
2021/08/03 09:44:32;;;;;;;1.73;1.63;;;21.20;62.70;;;;;;5093969;28;20181;-72
2021/08/03 09:46:58;;;;;;;2.42;1.80;;;21.20;62.80;;;;;;5112830;28;20177;-71
2021/08/03 09:49:36;;;;;;;2.10;1.75;;;21.20;63.70;;;;;;5112395;28;20213;-71
2021/08/03 09:52:05;;;;;;;3.47;1.80;;;21.20;62.80;;;;;;5112003;28;20259;-71
2021/08/03 09:54:30;;;;;;;3.88;1.88;;;21.20;62.80;;;;;;5112020;28;20177;-72
2021/08/03 09:56:56;;;;;;;3.05;1.95;;;21.20;62.80;;;;;;5112284;28;20245;-72
2021/08/03 09:59:32;;;;;;;3.30;1.98;;;21.20;62.80;;;;;;5111328;28;20250;-73
2021/08/03 10:01:58;;;;;;;2.63;1.92;;;21.20;62.80;;;;;;5094523;28;20341;-73
2021/08/03 10:04:26;;;;;;;1.92;1.60;;;21.20;62.80;;;;;;5112371;28;20256;-72
2021/08/03 10:06:51;;;;;;;3.47;2.15;;;21.20;62.80;;;;;;5094230;28;20202;-73
2021/08/03 10:09:18;;;;;;;3.25;1.80;;;21.20;62.80;;;;;;5094103;28;20190;-73
2021/08/03 10:11:44;;;;;;;2.80;2.20;;;21.20;62.70;;;;;;5093528;28;20220;-72
2021/08/03 10:14:09;;;;;;;2.40;1.77;;;21.30;62.80;;;;;;5094472;28;20177;-72
2021/08/03 10:16:35;;;;;;;3.60;2.03;;;21.30;62.70;;;;;;5093696;28;20173;-71
2021/08/03 10:19:01;;;;;;;2.25;1.90;;;21.30;62.70;;;;;;5093219;28;20763;-71
2021/08/03 10:21:43;;;;;;;2.70;1.83;;;21.30;62.60;;;;;;5093728;28;20663;-71
2021/08/03 10:24:11;;;;;;;2.45;2.03;;;21.30;62.50;;;;;;5078884;28;20583;-72
2021/08/03 10:26:39;;;;;;;2.38;2.05;;;21.30;62.40;;;;;;5093357;28;20169;-71
2021/08/03 10:29:20;;;;;;;1.80;1.70;;;21.40;62.50;;;;;;5094331;28;20226;-73
2021/08/03 10:31:46;;;;;;;2.63;2.03;;;21.40;62.40;;;;;;5112111;28;20520;-72
2021/08/03 10:34:11;;;;;;;4.63;2.53;;;21.40;62.30;;;;;;5111213;28;20176;-72
2021/08/03 10:36:37;;;;;;;3.97;2.30;;;21.40;62.20;;;;;;5076551;28;20169;-72
2021/08/03 10:39:20;;;;;;;2.30;1.88;;;21.40;62.20;;;;;;5119790;27;20179;-71
2021/08/03 10:41:57;;;;;;;3.72;2.28;;;21.50;62.20;;;;;;5131576;27;20214;-71
2021/08/03 10:44:43;;;;;;;5.43;2.10;;;21.50;62.10;;;;;;5132203;27;20196;-73
2021/08/03 10:47:30;;;;;;;3.75;2.50;;;21.50;62.10;;;;;;5131696;28;20177;-71
2021/08/03 10:49:56;;;;;;;3.72;2.30;;;21.50;62.00;;;;;;5132547;28;20259;-72
2021/08/03 10:52:48;;;;;;;5.47;2.80;;;21.60;62.10;;;;;;5132235;28;20224;-71
2021/08/03 10:55:33;;;;;;;3.13;2.80;;;21.60;62.10;;;;;;5131702;28;20297;-71
2021/08/03 10:58:11;;;;;;;3.05;2.42;;;21.60;62.10;;;;;;5132292;28;20169;-72
2021/08/03 11:00:58;;;;;;;3.50;2.50;;;21.60;61.90;;;;;;5132028;28;20258;-72
2021/08/03 11:03:35;;;;;;;2.90;2.50;;;21.60;61.90;;;;;;5132003;28;20192;-72
2021/08/03 11:06:03;;;;;;;3.65;2.63;;;21.60;62.00;;;;;;5132033;28;20672;-73
2021/08/03 11:08:29;;;;;;;3.17;2.88;;;21.70;62.00;;;;;;5131076;28;20179;-72
2021/08/03 11:11:05;;;;;;;3.35;3.03;;;21.70;62.00;;;;;;5132090;28;20168;-71
2021/08/03 11:13:58;;;;;;;4.60;2.90;;;21.70;62.00;;;;;;5131658;28;20655;-72
2021/08/03 11:16:23;;;;;;;3.80;2.65;;;21.60;62.00;;;;;;5121848;28;20210;-70
2021/08/03 11:18:51;;;;;;;4.57;3.22;;;21.60;62.00;;;;;;5131894;28;20232;-69
2021/08/03 11:21:21;;;;;;;4.10;3.20;;;21.60;62.10;;;;;;5131579;28;20553;-70
2021/08/03 11:24:14;;;;;;;3.72;3.25;;;21.60;62.10;;;;;;5131275;28;20230;-70
2021/08/03 11:26:53;;;;;;;3.90;3.60;;;21.50;62.00;;;;;;5131320;28;20652;-70
2021/08/03 11:29:23;;;;;;;4.78;3.88;;;21.60;62.00;;;;;;5130879;28;20238;-71
2021/08/03 11:31:58;;;;;;;7.65;4.57;;;21.60;61.90;;;;;;5131781;28;20200;-71
2021/08/03 11:34:28;;;;;;;8.15;6.05;;;21.50;61.60;;;;;;5131569;28;20198;-70
2021/08/03 11:36:55;;;;;;;7.15;5.65;;;21.60;61.20;;;;;;5131181;28;20196;-70
2021/08/03 11:39:28;;;;;;;7.38;5.57;;;21.60;61.20;;;;;;5121025;28;20181;-74
2021/08/03 11:41:54;;;;;;;6.28;5.75;;;21.60;61.40;;;;;;5110952;28;20220;-74
2021/08/03 11:44:19;;;;;;;9.77;6.05;;;21.50;61.30;;;;;;5109955;28;20174;-75
2021/08/03 11:46:54;;;;;;;7.90;6.55;;;21.50;61.20;;;;;;5111049;28;20231;-70
2021/08/03 11:49:21;;;;;;;7.60;5.63;;;21.50;61.10;;;;;;5110814;28;20311;-72
2021/08/03 11:51:48;;;;;;;9.70;6.25;;;21.50;61.20;;;;;;5093668;28;20180;-72
2021/08/03 11:54:17;;;;;;;10.40;5.85;;;21.50;61.20;;;;;;5114923;28;20177;-72
2021/08/03 11:56:43;;;;;;;7.72;6.25;;;21.50;61.30;;;;;;5114776;28;20265;-71
2021/08/03 11:59:09;;;;;;;7.60;6.13;;;21.40;61.30;;;;;;5113687;28;20283;-71
2021/08/03 12:01:51;;;;;;;7.28;5.57;;;21.40;61.40;;;;;;5114320;28;20201;-72
2021/08/03 12:04:20;;;;;;;6.07;5.07;;;21.50;61.50;;;;;;5113624;28;20177;-72
2021/08/03 12:06:45;;;;;;;4.85;4.40;;;21.40;61.50;;;;;;5114733;28;20177;-72
2021/08/03 12:09:11;;;;;;;6.13;4.90;;;21.40;61.50;;;;;;5096308;28;20183;-71
2021/08/03 12:11:36;;;;;;;4.63;4.07;;;21.40;61.60;;;;;;5094869;28;20622;-72
2021/08/03 12:14:09;;;;;;;4.72;4.18;;;21.40;61.70;;;;;;5114364;28;20658;-71
2021/08/03 12:16:34;;;;;;;6.07;4.57;;;21.40;61.70;;;;;;5114085;28;20166;-70
2021/08/03 12:19:00;;;;;;;4.25;3.85;;;21.30;61.70;;;;;;5113325;28;20245;-70
2021/08/03 12:21:35;;;;;;;4.75;4.18;;;21.30;61.80;;;;;;5113778;28;20659;-70
2021/08/03 12:24:08;;;;;;;3.92;3.63;;;21.30;61.90;;;;;;5113976;28;20481;-70
2021/08/03 12:26:33;;;;;;;5.05;3.70;;;21.30;61.90;;;;;;5113131;28;20176;-70
2021/08/03 12:28:59;;;;;;;4.95;4.55;;;21.30;62.00;;;;;;5113937;28;20177;-70
2021/08/03 12:31:30;;;;;;;5.25;4.13;;;21.30;62.10;;;;;;5113564;28;20264;-72
2021/08/03 12:34:08;;;;;;;4.38;4.03;;;21.20;62.10;;;;;;5113271;28;20200;-73
2021/08/03 12:36:56;;;;;;;5.28;3.50;;;21.20;62.10;;;;;;5113606;28;20169;-72
2021/08/03 12:39:27;;;;;;;4.10;3.67;;;21.20;62.20;;;;;;5123319;27;20184;-72
2021/08/03 12:42:10;;;;;;;5.90;3.58;;;21.20;62.20;;;;;;5134438;27;20216;-71
2021/08/03 12:44:37;;;;;;;6.35;3.90;;;21.20;62.20;;;;;;5134197;27;20176;-72
2021/08/03 12:47:16;;;;;;;5.25;3.42;;;21.20;62.20;;;;;;5133594;27;20176;-70
2021/08/03 12:49:46;;;;;;;3.65;3.08;;;21.20;62.30;;;;;;5134320;27;20582;-72
2021/08/03 12:52:14;;;;;;;3.80;3.50;;;21.20;62.30;;;;;;5134141;27;20168;-72
2021/08/03 12:54:41;;;;;;;3.80;3.40;;;21.20;62.40;;;;;;5133141;27;20184;-71
2021/08/03 12:57:09;;;;;;;5.05;3.65;;;21.20;62.40;;;;;;5134178;27;20542;-71